createdAt,value
2019-05-06T00:01:33.767Z,9.23
2019-05-06T00:04:01.036Z,7.50
2019-05-06T00:06:28.615Z,7.40
2019-05-06T00:08:56.004Z,6.43
2019-05-06T00:11:23.824Z,10.23
2019-05-06T00:13:51.409Z,6.80
2019-05-06T00:16:18.796Z,9.40
2019-05-06T00:18:46.014Z,9.73
2019-05-06T00:21:14.793Z,8.07
2019-05-06T00:23:49.809Z,5.23
2019-05-06T00:26:39.360Z,8.40
2019-05-06T00:29:13.973Z,9.63
2019-05-06T00:31:44.014Z,10.20
2019-05-06T00:34:13.715Z,9.53
2019-05-06T00:36:40.830Z,9.43
2019-05-06T00:39:33.776Z,10.20
2019-05-06T00:42:38.518Z,9.93
2019-05-06T00:45:06.350Z,11.30
2019-05-06T00:47:34.118Z,6.70
2019-05-06T00:50:01.475Z,10.57
2019-05-06T00:52:28.886Z,6.93
2019-05-06T00:54:56.249Z,7.60
2019-05-06T00:57:43.862Z,8.70
2019-05-06T01:00:13.660Z,8.03
2019-05-06T01:02:41.004Z,8.43
2019-05-06T01:05:08.592Z,7.87
2019-05-06T01:07:35.858Z,8.27
2019-05-06T01:10:03.783Z,7.07
2019-05-06T01:12:31.414Z,6.77
2019-05-06T01:14:59.610Z,6.00
2019-05-06T01:17:27.047Z,9.97
2019-05-06T01:19:54.393Z,7.93
2019-05-06T01:22:21.603Z,8.47
2019-05-06T01:24:49.056Z,11.13
2019-05-06T01:27:16.391Z,8.77
2019-05-06T01:29:44.184Z,10.63
2019-05-06T01:32:13.886Z,7.07
2019-05-06T01:34:47.006Z,10.47
2019-05-06T01:37:14.466Z,8.20
2019-05-06T01:40:05.455Z,7.93
2019-05-06T01:42:40.073Z,13.70
2019-05-06T01:45:07.652Z,10.60
2019-05-06T01:47:35.146Z,12.67
2019-05-06T01:50:04.391Z,7.87
2019-05-06T01:52:31.873Z,8.83
2019-05-06T01:54:59.242Z,9.77
2019-05-06T01:57:26.560Z,11.67
2019-05-06T01:59:55.070Z,7.20
2019-05-06T02:02:23.958Z,12.37
2019-05-06T02:04:51.491Z,10.73
2019-05-06T02:07:18.805Z,14.23
2019-05-06T02:09:46.368Z,12.10
2019-05-06T02:12:13.893Z,13.30
2019-05-06T02:14:43.669Z,6.13
2019-05-06T02:17:10.934Z,9.50
2019-05-06T02:19:38.605Z,7.83
2019-05-06T02:22:13.688Z,7.47
2019-05-06T02:24:44.931Z,10.07
2019-05-06T02:27:13.903Z,11.33
2019-05-06T02:29:47.272Z,10.40
2019-05-06T02:32:46.181Z,10.27
2019-05-06T02:35:26.003Z,8.93
2019-05-06T02:37:51.560Z,7.60
2019-05-06T02:40:24.291Z,9.63
2019-05-06T02:42:53.961Z,7.70
2019-05-06T02:45:19.572Z,9.80
2019-05-06T02:47:56.111Z,8.33
2019-05-06T02:50:24.706Z,14.60
2019-05-06T02:52:53.770Z,9.67
2019-05-06T02:55:23.553Z,8.10
2019-05-06T02:57:53.328Z,9.53
2019-05-06T03:00:19.998Z,13.63
2019-05-06T03:02:48.356Z,10.57
2019-05-06T03:05:15.939Z,14.47
2019-05-06T03:07:43.764Z,12.07
2019-05-06T03:10:13.357Z,12.40
2019-05-06T03:12:43.047Z,11.90
2019-05-06T03:15:09.948Z,13.10
2019-05-06T03:17:37.270Z,10.87
2019-05-06T03:20:06.861Z,13.27
2019-05-06T03:22:44.315Z,12.63
2019-05-06T03:25:14.462Z,12.13
2019-05-06T03:27:43.829Z,9.83
2019-05-06T03:30:16.536Z,13.00
2019-05-06T03:33:20.103Z,10.67
2019-05-06T03:35:31.598Z,14.37
2019-05-06T03:37:39.904Z,13.17
2019-05-06T03:40:07.347Z,13.50
2019-05-06T03:42:34.689Z,16.03
2019-05-06T03:45:07.858Z,12.63
2019-05-06T03:47:48.881Z,11.17
2019-05-06T03:50:16.528Z,12.23
2019-05-06T03:52:43.949Z,11.27
2019-05-06T03:55:13.876Z,12.47
2019-05-06T03:57:42.876Z,13.13
2019-05-06T04:00:16.026Z,14.93
2019-05-06T04:02:43.568Z,15.73
2019-05-06T04:05:13.251Z,13.60
2019-05-06T04:07:45.437Z,12.63
2019-05-06T04:10:09.721Z,12.00
2019-05-06T04:12:37.170Z,15.43
2019-05-06T04:15:04.998Z,14.70
2019-05-06T04:17:43.867Z,15.33
2019-05-06T04:20:33.977Z,16.87
2019-05-06T04:23:07.703Z,12.30
2019-05-06T04:26:03.312Z,11.10
2019-05-06T04:28:34.227Z,17.07
2019-05-06T04:31:02.655Z,15.10
2019-05-06T04:33:32.998Z,14.30
2019-05-06T04:35:59.514Z,15.53
2019-05-06T04:38:26.883Z,17.13
2019-05-06T04:40:54.453Z,16.30
2019-05-06T04:43:26.273Z,25.13
2019-05-06T04:45:54.029Z,18.03
2019-05-06T04:48:23.854Z,19.67
2019-05-06T04:50:53.503Z,15.47
2019-05-06T04:53:26.434Z,17.93
2019-05-06T04:55:49.647Z,17.60
2019-05-06T04:58:17.051Z,21.00
2019-05-06T05:00:44.865Z,13.50
2019-05-06T05:03:13.955Z,18.63
2019-05-06T05:05:44.454Z,21.93
2019-05-06T05:08:13.142Z,15.77
2019-05-06T05:10:53.123Z,17.13
2019-05-06T05:13:45.657Z,20.10
2019-05-06T05:16:33.240Z,16.57
2019-05-06T05:19:04.151Z,18.33
2019-05-06T05:21:32.275Z,21.17
2019-05-06T05:24:01.911Z,23.67
2019-05-06T05:26:31.717Z,22.53
2019-05-06T05:28:59.750Z,22.43
2019-05-06T05:31:27.218Z,25.43
2019-05-06T05:33:54.999Z,21.57
2019-05-06T05:36:23.218Z,24.53
2019-05-06T05:38:52.226Z,22.77
2019-05-06T05:41:19.784Z,23.50
2019-05-06T05:43:55.014Z,30.93
2019-05-06T05:46:22.272Z,23.53
2019-05-06T05:49:24.855Z,23.10
2019-05-06T05:51:52.319Z,22.77
2019-05-06T05:54:19.529Z,23.63
2019-05-06T05:56:47.271Z,25.37
2019-05-06T05:59:14.647Z,26.33
2019-05-06T06:01:43.498Z,16.43
2019-05-06T06:04:12.864Z,23.73
2019-05-06T06:06:42.237Z,23.13
2019-05-06T06:09:09.391Z,24.00
2019-05-06T06:11:46.689Z,20.43
2019-05-06T06:14:53.516Z,25.63
2019-05-06T06:17:39.671Z,21.20
2019-05-06T06:20:25.236Z,25.20
2019-05-06T06:22:53.612Z,24.20
2019-05-06T06:25:23.602Z,28.37
2019-05-06T06:27:52.073Z,26.40
2019-05-06T06:30:27.605Z,23.83
2019-05-06T06:32:55.190Z,26.90
2019-05-06T06:35:44.938Z,25.47
2019-05-06T06:38:20.594Z,28.13
2019-05-06T06:40:48.082Z,24.43
2019-05-06T06:43:19.632Z,28.13
2019-05-06T06:45:46.939Z,25.07
2019-05-06T06:48:14.582Z,21.27
2019-05-06T06:50:42.704Z,21.67
2019-05-06T06:53:12.179Z,21.50
2019-05-06T06:55:42.688Z,21.93
2019-05-06T06:58:25.422Z,20.87
2019-05-06T07:01:13.807Z,25.50
2019-05-06T07:03:45.702Z,21.37
2019-05-06T07:06:19.388Z,26.33
2019-05-06T07:08:46.806Z,28.03
2019-05-06T07:11:14.058Z,26.57
2019-05-06T07:13:52.878Z,21.83
2019-05-06T07:16:20.897Z,21.00
2019-05-06T07:18:49.553Z,25.67
2019-05-06T07:21:22.923Z,23.37
2019-05-06T07:23:50.181Z,21.73
2019-05-06T07:26:19.569Z,22.67
2019-05-06T07:28:48.173Z,26.80
2019-05-06T07:31:22.356Z,23.70
2019-05-06T07:33:44.798Z,23.17
2019-05-06T07:36:13.015Z,20.80
2019-05-06T07:38:48.900Z,23.00
2019-05-06T07:41:19.960Z,20.30
2019-05-06T07:44:04.143Z,19.40
2019-05-06T07:46:49.250Z,18.30
2019-05-06T07:49:16.437Z,25.03
2019-05-06T07:51:43.881Z,21.60
2019-05-06T07:54:12.242Z,23.43
2019-05-06T07:56:39.917Z,21.40
2019-05-06T07:59:07.171Z,20.13
2019-05-06T08:01:35.688Z,21.63
2019-05-06T08:04:02.898Z,24.27
2019-05-06T08:06:32.066Z,21.90
2019-05-06T08:08:59.320Z,18.40
2019-05-06T08:11:26.801Z,21.50
2019-05-06T08:13:54.189Z,19.77
2019-05-06T08:16:22.620Z,22.03
2019-05-06T08:18:52.341Z,16.13
2019-05-06T08:21:22.440Z,18.37
2019-05-06T08:23:52.301Z,19.33
2019-05-06T08:26:22.259Z,17.60
2019-05-06T08:28:49.266Z,16.73
2019-05-06T08:31:18.392Z,20.73
2019-05-06T08:33:45.624Z,17.90
2019-05-06T08:36:18.560Z,13.57
2019-05-06T08:38:55.463Z,16.93
2019-05-06T08:41:22.847Z,17.97
2019-05-06T08:43:50.238Z,21.60
2019-05-06T08:46:17.429Z,17.23
2019-05-06T08:48:44.605Z,18.60
2019-05-06T08:51:18.358Z,21.90
2019-05-06T08:53:56.336Z,22.63
2019-05-06T08:56:26.279Z,19.33
2019-05-06T08:58:54.179Z,19.13
2019-05-06T09:01:32.406Z,18.43
2019-05-06T09:04:09.526Z,16.80
2019-05-06T09:06:31.542Z,19.70
2019-05-06T09:08:58.383Z,17.90
2019-05-06T09:11:26.096Z,13.73
2019-05-06T09:13:53.491Z,15.43
2019-05-06T09:16:22.360Z,18.97
2019-05-06T09:18:49.814Z,16.63
2019-05-06T09:21:17.313Z,20.73
2019-05-06T09:23:44.531Z,17.37
2019-05-06T09:26:14.100Z,17.77
2019-05-06T09:28:46.477Z,17.43
2019-05-06T09:31:26.230Z,13.77
2019-05-06T09:33:58.388Z,16.37
2019-05-06T09:36:39.937Z,16.00
2019-05-06T09:38:54.860Z,17.13
2019-05-06T09:41:23.085Z,15.37
2019-05-06T09:43:52.659Z,18.57
2019-05-06T09:46:19.534Z,20.50
2019-05-06T09:49:03.374Z,18.07
2019-05-06T09:51:32.507Z,13.43
2019-05-06T09:54:06.619Z,15.47
2019-05-06T09:56:38.168Z,16.07
2019-05-06T09:59:05.498Z,13.33
2019-05-06T10:01:33.245Z,13.90
2019-05-06T10:04:06.228Z,17.60
2019-05-06T10:06:33.609Z,19.33
2019-05-06T10:09:04.714Z,19.73
2019-05-06T10:11:32.908Z,14.87
2019-05-06T10:14:02.880Z,16.60
2019-05-06T10:16:32.384Z,16.90
2019-05-06T10:18:59.701Z,20.90
2019-05-06T10:21:27.117Z,16.40
2019-05-06T10:23:54.569Z,16.47
2019-05-06T10:26:23.472Z,12.73
2019-05-06T10:29:03.518Z,14.20
2019-05-06T10:31:36.125Z,16.23
2019-05-06T10:34:13.852Z,21.27
2019-05-06T10:36:53.309Z,16.73
2019-05-06T10:39:24.260Z,17.00
2019-05-06T10:42:12.740Z,15.13
2019-05-06T10:44:54.871Z,20.80
2019-05-06T10:47:22.675Z,14.97
2019-05-06T10:49:52.807Z,16.23
2019-05-06T10:52:23.919Z,11.40
2019-05-06T10:54:51.141Z,11.27
2019-05-06T10:57:32.848Z,9.07
2019-05-06T11:00:00.669Z,10.33
2019-05-06T11:02:57.618Z,11.00
2019-05-06T11:05:24.867Z,8.47
2019-05-06T11:07:52.302Z,8.03
2019-05-06T11:10:26.905Z,10.17
2019-05-06T11:12:48.880Z,7.60
2019-05-06T11:15:16.649Z,10.50
2019-05-06T11:17:44.005Z,9.50
2019-05-06T11:20:14.030Z,8.33
2019-05-06T11:22:43.355Z,6.90
2019-05-06T11:25:12.195Z,7.10
2019-05-06T11:27:41.841Z,8.30
2019-05-06T11:30:17.801Z,9.17
2019-05-06T11:32:54.839Z,11.70
2019-05-06T11:35:52.571Z,8.20
2019-05-06T11:38:19.757Z,10.23
2019-05-06T11:40:46.961Z,10.30
2019-05-06T11:43:14.540Z,11.57
2019-05-06T11:45:42.724Z,12.20
2019-05-06T11:48:14.281Z,12.83
2019-05-06T11:50:42.679Z,12.53
2019-05-06T11:53:12.386Z,15.90
2019-05-06T11:55:39.292Z,13.23
2019-05-06T11:58:26.271Z,11.70
2019-05-06T12:00:53.728Z,13.87
2019-05-06T12:03:22.899Z,13.90
2019-05-06T12:05:52.538Z,17.87
2019-05-06T12:08:22.069Z,14.20
2019-05-06T12:10:48.977Z,14.90
2019-05-06T12:13:16.351Z,17.93
2019-05-06T12:15:43.610Z,15.10
2019-05-06T12:18:12.487Z,17.53
2019-05-06T12:20:42.587Z,11.87
2019-05-06T12:23:10.057Z,16.10
2019-05-06T12:25:37.413Z,13.97
2019-05-06T12:28:04.965Z,19.07
2019-05-06T12:30:32.444Z,14.57
2019-05-06T12:33:34.521Z,15.07
2019-05-06T12:36:07.253Z,12.00
2019-05-06T12:38:36.340Z,16.30
2019-05-06T12:41:03.710Z,10.37
2019-05-06T12:43:49.966Z,15.53
2019-05-06T12:46:22.583Z,12.50
2019-05-06T12:48:52.028Z,20.30
2019-05-06T12:51:19.185Z,11.27
2019-05-06T12:53:46.452Z,11.73
2019-05-06T12:56:13.704Z,11.63
2019-05-06T12:58:44.095Z,15.50
2019-05-06T13:01:13.351Z,10.57
2019-05-06T13:03:40.039Z,9.43
2019-05-06T13:06:08.954Z,9.43
2019-05-06T13:08:54.046Z,18.13
2019-05-06T13:11:05.901Z,14.27
2019-05-06T13:13:33.337Z,16.07
2019-05-06T13:16:02.743Z,18.20
2019-05-06T13:18:32.116Z,14.80
2019-05-06T13:20:59.203Z,15.43
2019-05-06T13:23:35.460Z,14.97
2019-05-06T13:26:03.139Z,9.90
2019-05-06T13:28:33.429Z,12.43
2019-05-06T13:31:16.437Z,16.40
2019-05-06T13:33:35.008Z,13.03
2019-05-06T13:36:02.512Z,10.73
2019-05-06T13:38:31.946Z,11.40
2019-05-06T13:40:59.877Z,15.43
2019-05-06T13:43:35.710Z,12.23
2019-05-06T13:46:07.438Z,12.30
2019-05-06T13:48:38.945Z,12.17
2019-05-06T13:51:12.302Z,12.10
2019-05-06T13:53:44.024Z,9.93
2019-05-06T13:56:11.946Z,10.07
2019-05-06T13:58:38.898Z,9.53
2019-05-06T14:01:09.599Z,8.00
2019-05-06T14:03:36.834Z,7.67
2019-05-06T14:06:04.217Z,10.73
2019-05-06T14:08:33.006Z,9.23
2019-05-06T14:11:02.865Z,12.80
2019-05-06T14:13:32.615Z,13.83
2019-05-06T14:15:59.440Z,8.77
2019-05-06T14:18:26.871Z,9.70
2019-05-06T14:20:54.237Z,10.73
2019-05-06T14:23:22.035Z,13.00
2019-05-06T14:26:08.105Z,10.23
2019-05-06T14:28:42.757Z,16.20
2019-05-06T14:31:14.604Z,11.70
2019-05-06T14:33:42.789Z,15.97
2019-05-06T14:36:12.662Z,11.97
2019-05-06T14:38:39.611Z,9.90
2019-05-06T14:41:18.827Z,9.53
2019-05-06T14:43:47.403Z,14.07
2019-05-06T14:46:15.168Z,12.57
2019-05-06T14:48:43.645Z,12.73
2019-05-06T14:51:12.907Z,11.37
2019-05-06T14:53:40.298Z,9.80
2019-05-06T14:56:22.669Z,13.20
2019-05-06T14:59:05.980Z,10.17
2019-05-06T15:01:34.346Z,9.57
2019-05-06T15:04:03.120Z,17.77
2019-05-06T15:06:33.109Z,10.73
2019-05-06T15:09:03.698Z,10.13
2019-05-06T15:11:32.467Z,13.63
2019-05-06T15:14:03.286Z,7.33
2019-05-06T15:16:29.332Z,17.17
2019-05-06T15:18:56.674Z,11.13
2019-05-06T15:21:37.284Z,11.17
2019-05-06T15:23:53.165Z,9.87
2019-05-06T15:26:20.346Z,10.33
2019-05-06T15:28:47.702Z,10.03
2019-05-06T15:31:22.883Z,11.60
2019-05-06T15:33:52.924Z,12.30
2019-05-06T15:36:25.795Z,12.33
2019-05-06T15:38:53.126Z,8.87
2019-05-06T15:41:22.217Z,7.63
2019-05-06T15:43:49.497Z,7.83
2019-05-06T15:46:16.865Z,6.47
2019-05-06T15:48:44.128Z,8.60
2019-05-06T15:51:12.240Z,8.43
2019-05-06T15:53:42.056Z,9.63
2019-05-06T15:56:09.021Z,12.20
2019-05-06T15:58:36.613Z,10.97
2019-05-06T16:01:04.001Z,8.43
2019-05-06T16:03:33.413Z,11.13
2019-05-06T16:06:02.025Z,13.73
2019-05-06T16:08:29.566Z,9.60
2019-05-06T16:10:58.833Z,8.67
2019-05-06T16:13:26.017Z,7.77
2019-05-06T16:15:53.435Z,8.23
2019-05-06T16:18:20.623Z,13.40
2019-05-06T16:20:48.465Z,13.80
2019-05-06T16:23:42.152Z,11.10
2019-05-06T16:26:09.041Z,11.17
2019-05-06T16:28:36.491Z,10.00
2019-05-06T16:31:04.340Z,10.57
2019-05-06T16:33:32.936Z,8.60
2019-05-06T16:36:00.554Z,12.50
2019-05-06T16:38:28.073Z,8.07
2019-05-06T16:41:09.376Z,12.03
2019-05-06T16:43:24.395Z,7.70
2019-05-06T16:45:53.223Z,13.03
2019-05-06T16:48:22.583Z,9.67
2019-05-06T16:50:50.255Z,8.77
2019-05-06T16:53:17.463Z,9.37
2019-05-06T16:55:56.348Z,9.07
2019-05-06T16:58:25.988Z,7.63
2019-05-06T17:00:53.821Z,8.73
2019-05-06T17:03:26.709Z,8.23
2019-05-06T17:06:13.991Z,10.73
2019-05-06T17:08:42.458Z,9.37
2019-05-06T17:11:26.125Z,14.17
2019-05-06T17:13:42.585Z,10.23
2019-05-06T17:16:10.158Z,10.03
2019-05-06T17:18:37.688Z,7.90
2019-05-06T17:21:05.189Z,5.77
2019-05-06T17:23:32.552Z,8.10
2019-05-06T17:25:59.783Z,9.00
2019-05-06T17:28:39.124Z,9.23
2019-05-06T17:31:24.622Z,8.67
2019-05-06T17:33:52.492Z,11.87
2019-05-06T17:36:22.343Z,7.20
2019-05-06T17:38:50.071Z,12.70
2019-05-06T17:41:17.486Z,14.83
2019-05-06T17:43:44.856Z,10.57
2019-05-06T17:46:13.374Z,8.17
2019-05-06T17:48:58.890Z,8.30
2019-05-06T17:51:58.431Z,11.83
2019-05-06T17:54:26.063Z,19.47
2019-05-06T17:56:53.483Z,13.30
2019-05-06T17:59:20.839Z,14.53
2019-05-06T18:01:53.026Z,9.60
2019-05-06T18:04:19.476Z,8.67
2019-05-06T18:06:46.898Z,10.87
2019-05-06T18:09:14.558Z,12.20
2019-05-06T18:11:57.135Z,62.70
2019-05-06T18:14:12.788Z,47.17
2019-05-06T18:16:42.576Z,26.70
2019-05-06T18:19:09.643Z,24.60
2019-05-06T18:21:37.000Z,16.13
2019-05-06T18:24:04.458Z,20.20
2019-05-06T18:26:33.553Z,32.97
2019-05-06T18:29:01.005Z,18.33
2019-05-06T18:31:28.242Z,20.10
2019-05-06T18:33:56.537Z,24.33
2019-05-06T18:36:23.944Z,20.93
2019-05-06T18:38:52.534Z,16.80
2019-05-06T18:41:20.026Z,17.33
2019-05-06T18:43:47.241Z,13.33
2019-05-06T18:46:14.675Z,14.83
2019-05-06T18:48:42.743Z,13.73
2019-05-06T18:51:12.579Z,17.67
2019-05-06T18:53:42.273Z,14.33
2019-05-06T18:56:09.763Z,16.47
2019-05-06T18:58:37.174Z,18.67
2019-05-06T19:01:04.783Z,12.13
2019-05-06T19:03:42.959Z,12.63
2019-05-06T19:06:11.965Z,23.87
2019-05-06T19:08:45.219Z,17.13
2019-05-06T19:11:14.543Z,15.73
2019-05-06T19:13:42.128Z,16.07
2019-05-06T19:16:09.546Z,16.07
2019-05-06T19:18:38.675Z,12.40
2019-05-06T19:21:06.213Z,17.87
2019-05-06T19:23:33.416Z,12.23
2019-05-06T19:26:02.865Z,13.93
2019-05-06T19:28:32.307Z,11.10
2019-05-06T19:30:59.851Z,12.07
2019-05-06T19:33:27.202Z,14.73
2019-05-06T19:35:54.678Z,24.63
2019-05-06T19:38:24.395Z,43.23
2019-05-06T19:40:52.137Z,19.53
2019-05-06T19:43:21.981Z,13.50
2019-05-06T19:45:49.739Z,12.17
2019-05-06T19:48:17.090Z,10.47
2019-05-06T19:50:44.788Z,14.23
2019-05-06T19:53:12.260Z,12.00
2019-05-06T19:55:39.627Z,13.73
2019-05-06T19:58:07.027Z,12.63
2019-05-06T20:00:35.030Z,14.57
2019-05-06T20:03:02.833Z,15.03
2019-05-06T20:05:39.673Z,11.77
2019-05-06T20:08:29.613Z,14.60
2019-05-06T20:11:13.121Z,17.50
2019-05-06T20:13:41.868Z,10.80
2019-05-06T20:16:09.282Z,10.97
2019-05-06T20:18:36.757Z,13.27
2019-05-06T20:21:04.281Z,12.77
2019-05-06T20:23:32.807Z,12.83
2019-05-06T20:26:02.814Z,9.73
2019-05-06T20:28:32.203Z,9.93
2019-05-06T20:30:59.911Z,12.80
2019-05-06T20:33:27.528Z,10.67
2019-05-06T20:35:54.900Z,14.73
2019-05-06T20:38:23.161Z,14.23
2019-05-06T20:40:50.718Z,11.00
2019-05-06T20:43:21.673Z,16.60
2019-05-06T20:45:47.679Z,9.67
2019-05-06T20:48:15.007Z,9.47
2019-05-06T20:50:42.946Z,11.97
2019-05-06T20:53:12.118Z,11.83
2019-05-06T20:55:43.137Z,10.23
2019-05-06T20:58:12.034Z,13.17
2019-05-06T21:00:38.982Z,13.23
2019-05-06T21:03:06.273Z,14.40
2019-05-06T21:05:33.554Z,14.97
2019-05-06T21:08:02.262Z,14.63
2019-05-06T21:10:29.660Z,10.97
2019-05-06T21:12:57.139Z,12.10
2019-05-06T21:15:24.637Z,12.43
2019-05-06T21:17:51.718Z,14.47
2019-05-06T21:20:19.214Z,12.57
2019-05-06T21:22:49.003Z,10.10
2019-05-06T21:25:16.052Z,13.47
2019-05-06T21:27:43.405Z,11.27
2019-05-06T21:30:13.189Z,12.20
2019-05-06T21:32:42.620Z,16.10
2019-05-06T21:35:09.942Z,13.73
2019-05-06T21:37:37.158Z,17.50
2019-05-06T21:40:04.731Z,15.70
2019-05-06T21:42:32.594Z,17.33
2019-05-06T21:45:00.152Z,20.47
2019-05-06T21:47:27.590Z,23.30
2019-05-06T21:49:55.275Z,13.67
2019-05-06T21:52:34.322Z,14.83
2019-05-06T21:54:52.569Z,17.60
2019-05-06T21:57:21.799Z,16.63
2019-05-06T21:59:49.158Z,17.83
2019-05-06T22:02:19.023Z,15.70
2019-05-06T22:04:46.513Z,18.90
2019-05-06T22:07:13.940Z,16.93
2019-05-06T22:09:43.059Z,16.33
2019-05-06T22:12:10.644Z,17.00
2019-05-06T22:14:38.282Z,20.57
2019-05-06T22:17:06.785Z,18.37
2019-05-06T22:19:34.013Z,16.07
2019-05-06T22:22:06.430Z,16.20
2019-05-06T22:24:44.293Z,18.47
2019-05-06T22:27:12.296Z,16.47
2019-05-06T22:29:42.585Z,16.37
2019-05-06T22:32:11.868Z,17.53
2019-05-06T22:34:39.161Z,15.33
2019-05-06T22:37:06.416Z,15.27
2019-05-06T22:39:34.292Z,23.47
2019-05-06T22:42:01.626Z,18.40
2019-05-06T22:44:28.810Z,20.03
2019-05-06T22:46:56.361Z,16.30
2019-05-06T22:49:23.622Z,18.23
2019-05-06T22:51:52.147Z,17.83
2019-05-06T22:54:19.496Z,18.17
2019-05-06T22:56:46.934Z,16.30
2019-05-06T22:59:14.146Z,23.03
2019-05-06T23:02:01.826Z,19.07
2019-05-06T23:04:32.302Z,18.77
2019-05-06T23:06:59.282Z,17.67
2019-05-06T23:09:26.605Z,19.83
2019-05-06T23:11:53.821Z,20.63
2019-05-06T23:14:28.893Z,18.57
2019-05-06T23:16:52.108Z,15.40
2019-05-06T23:19:19.465Z,17.17
2019-05-06T23:21:47.043Z,16.93
2019-05-06T23:24:14.130Z,17.07
2019-05-06T23:26:42.502Z,15.90
2019-05-06T23:29:09.862Z,20.87
2019-05-06T23:31:37.182Z,17.10
2019-05-06T23:34:04.961Z,23.20
2019-05-06T23:37:25.363Z,20.07
2019-05-06T23:40:33.107Z,17.03
2019-05-06T23:43:36.913Z,16.80
2019-05-06T23:46:40.721Z,17.67
2019-05-06T23:49:44.251Z,16.60
2019-05-06T23:52:47.776Z,14.97
2019-05-06T23:55:51.989Z,13.60
2019-05-06T23:58:18.496Z,13.50
